Time;durP1;ratioP1;P1;durP2;ratioP2;P2;SDS_P1;SDS_P2;PMS_P1;PMS_P2;Temp;Humidity;BMP_temperature;BMP_pressure;BME280_temperature;BME280_humidity;BME280_pressure;Samples;Min_cycle;Max_cycle;Signal;HPM_P1;HPM_P2
2023/06/29 00:00:01;;;;;;;8.80;5.28;;;;;;;;;;5044052;28;20535;-70
2023/06/29 00:02:29;;;;;;;6.53;5.20;;;;;;;;;;4971033;28;20820;-71
2023/06/29 00:04:57;;;;;;;5.55;4.80;;;;;;;;;;4999472;28;20432;-71
2023/06/29 00:07:25;;;;;;;5.60;5.10;;;;;;;;;;4977960;28;20430;-71
2023/06/29 00:09:53;;;;;;;7.60;4.97;;;;;;;;;;5039908;28;20514;-68
2023/06/29 00:12:20;;;;;;;5.28;4.72;;;;;;;;;;4966738;28;20440;-69
2023/06/29 00:14:49;;;;;;;5.22;4.63;;;;;;;;;;4971851;28;20812;-71
2023/06/29 00:17:16;;;;;;;5.40;4.75;;;;;;;;;;4952606;28;20946;-71
2023/06/29 00:19:47;;;;;;;7.82;5.30;;;;;;;;;;4995208;28;20473;-71
2023/06/29 00:22:14;;;;;;;5.70;5.10;;;;;;;;;;4942779;28;20426;-69
2023/06/29 00:24:43;;;;;;;7.60;5.25;;;;;;;;;;4955320;28;20440;-71
2023/06/29 00:27:10;;;;;;;5.50;4.75;;;;;;;;;;4945744;28;20463;-69
2023/06/29 00:29:37;;;;;;;6.15;4.82;;;;;;;;;;5006923;28;20925;-69
2023/06/29 00:34:41;;;;;;;6.50;5.00;;;;;;;;;;5098530;28;20424;-72
2023/06/29 00:37:08;;;;;;;5.65;4.60;;;;;;;;;;5098348;28;20428;-72
2023/06/29 00:39:35;;;;;;;5.65;4.82;;;;;;;;;;5092956;28;20808;-74
2023/06/29 00:42:03;;;;;;;5.75;5.10;;;;;;;;;;5098739;28;20443;-73
2023/06/29 00:44:30;;;;;;;6.25;5.30;;;;;;;;;;5076291;28;20431;-73
2023/06/29 00:46:58;;;;;;;6.90;5.07;;;;;;;;;;5079071;28;20506;-73
2023/06/29 00:49:25;;;;;;;5.47;4.97;;;;;;;;;;5078991;28;20720;-74
2023/06/29 00:51:55;;;;;;;5.40;4.90;;;;;;;;;;5084367;28;20423;-74
2023/06/29 00:54:22;;;;;;;5.53;4.50;;;;;;;;;;5076418;28;20918;-73
2023/06/29 00:56:50;;;;;;;5.70;5.00;;;;;;;;;;5088734;28;20417;-74
2023/06/29 00:59:17;;;;;;;6.40;4.95;;;;;;;;;;5085723;28;20421;-73
2023/06/29 01:01:45;;;;;;;6.50;4.70;;;;;;;;;;5081168;28;20445;-73
2023/06/29 01:04:24;;;;;;;5.57;4.60;;;;;;;;;;5076664;28;20446;-73
2023/06/29 01:06:56;;;;;;;6.38;5.00;;;;;;;;;;5081222;28;20513;-74
2023/06/29 01:09:24;;;;;;;5.72;5.00;;;;;;;;;;5091955;28;20422;-74
2023/06/29 01:11:52;;;;;;;5.50;4.50;;;;;;;;;;5087049;28;20579;-73
2023/06/29 01:14:19;;;;;;;6.22;5.30;;;;;;;;;;5090112;28;20911;-74
2023/06/29 01:16:47;;;;;;;6.97;5.35;;;;;;;;;;5092693;28;20406;-73
2023/06/29 01:19:18;;;;;;;5.22;4.72;;;;;;;;;;5110907;28;20393;-74
2023/06/29 01:21:48;;;;;;;6.60;4.97;;;;;;;;;;5092744;28;20422;-71
2023/06/29 01:24:18;;;;;;;6.33;4.90;;;;;;;;;;5091456;28;20457;-71
2023/06/29 01:26:48;;;;;;;5.53;4.57;;;;;;;;;;5086412;28;20936;-73
2023/06/29 01:29:15;;;;;;;5.80;4.80;;;;;;;;;;5090236;28;20433;-73
2023/06/29 01:31:44;;;;;;;7.28;4.80;;;;;;;;;;5078187;28;20417;-73
2023/06/29 01:34:12;;;;;;;6.50;4.95;;;;;;;;;;5074142;28;20481;-73
2023/06/29 01:36:41;;;;;;;5.25;4.75;;;;;;;;;;5090738;28;20925;-74
2023/06/29 01:39:13;;;;;;;5.93;4.50;;;;;;;;;;5089880;28;20764;-73
2023/06/29 01:41:41;;;;;;;6.45;4.97;;;;;;;;;;5090389;28;20418;-73
2023/06/29 01:44:12;;;;;;;7.35;4.78;;;;;;;;;;5092098;28;20418;-73
2023/06/29 01:46:39;;;;;;;5.20;4.70;;;;;;;;;;5079605;28;20809;-73
2023/06/29 01:49:07;;;;;;;6.67;4.80;;;;;;;;;;5086923;28;20460;-74
2023/06/29 01:51:34;;;;;;;6.00;5.40;;;;;;;;;;5091933;28;20695;-72
2023/06/29 01:54:01;;;;;;;6.32;5.03;;;;;;;;;;5087266;28;20432;-74
2023/06/29 01:56:28;;;;;;;6.57;5.20;;;;;;;;;;5090473;28;20410;-74
2023/06/29 01:58:55;;;;;;;7.70;5.00;;;;;;;;;;5079629;28;20434;-73
2023/06/29 02:01:24;;;;;;;5.30;4.80;;;;;;;;;;5084849;28;20421;-72
2023/06/29 02:03:51;;;;;;;6.10;4.80;;;;;;;;;;5082081;28;20901;-74
2023/06/29 02:06:18;;;;;;;5.60;4.70;;;;;;;;;;5091225;28;20429;-74
2023/06/29 02:08:45;;;;;;;7.67;4.90;;;;;;;;;;5089330;28;20970;-74
2023/06/29 02:11:12;;;;;;;6.60;4.50;;;;;;;;;;5090398;28;20414;-73
2023/06/29 02:13:39;;;;;;;6.22;5.30;;;;;;;;;;5086426;28;20413;-72
2023/06/29 02:16:06;;;;;;;6.60;4.70;;;;;;;;;;5088209;28;20421;-73
2023/06/29 02:18:34;;;;;;;5.13;4.63;;;;;;;;;;5085241;28;20425;-73
2023/06/29 02:21:01;;;;;;;6.23;4.70;;;;;;;;;;5085317;28;20473;-72
2023/06/29 02:23:28;;;;;;;5.30;4.80;;;;;;;;;;5083117;28;20421;-72
2023/06/29 02:25:55;;;;;;;5.65;4.80;;;;;;;;;;5083584;28;20786;-73
2023/06/29 02:28:22;;;;;;;7.22;4.55;;;;;;;;;;5081556;28;20438;-73
2023/06/29 02:30:49;;;;;;;5.43;4.70;;;;;;;;;;5078087;28;20786;-72
2023/06/29 02:33:17;;;;;;;5.15;4.65;;;;;;;;;;5083617;28;20780;-72
2023/06/29 02:35:45;;;;;;;5.20;4.63;;;;;;;;;;5090147;28;20414;-71
2023/06/29 02:38:12;;;;;;;5.47;4.45;;;;;;;;;;5089413;28;20425;-72
2023/06/29 02:40:39;;;;;;;6.50;4.70;;;;;;;;;;5089624;28;20417;-73
2023/06/29 02:43:06;;;;;;;5.78;4.55;;;;;;;;;;5079316;28;20435;-73
2023/06/29 02:45:33;;;;;;;5.45;4.70;;;;;;;;;;5076848;28;20513;-73
2023/06/29 02:48:01;;;;;;;5.53;5.00;;;;;;;;;;5087352;28;20896;-71
2023/06/29 02:50:28;;;;;;;5.28;4.78;;;;;;;;;;5089220;28;20421;-73
2023/06/29 02:52:56;;;;;;;5.20;4.70;;;;;;;;;;5088953;28;20895;-73
2023/06/29 02:55:23;;;;;;;5.50;5.00;;;;;;;;;;5089677;28;20417;-74
2023/06/29 02:57:51;;;;;;;5.80;5.20;;;;;;;;;;5080344;28;20431;-73
2023/06/29 03:00:18;;;;;;;5.70;5.20;;;;;;;;;;5071172;28;20425;-73
2023/06/29 03:02:45;;;;;;;5.78;5.00;;;;;;;;;;5084367;28;20426;-72
2023/06/29 03:05:12;;;;;;;5.50;4.90;;;;;;;;;;5078806;28;20447;-73
2023/06/29 03:07:39;;;;;;;5.82;5.00;;;;;;;;;;5075903;28;20763;-74
2023/06/29 03:10:08;;;;;;;6.30;5.38;;;;;;;;;;5078501;28;20433;-73
2023/06/29 03:12:35;;;;;;;5.70;5.20;;;;;;;;;;5079277;28;20430;-71
2023/06/29 03:15:03;;;;;;;6.57;5.00;;;;;;;;;;5079408;28;20430;-73
2023/06/29 03:17:30;;;;;;;5.60;5.00;;;;;;;;;;5081920;28;20413;-72
2023/06/29 03:19:57;;;;;;;6.93;5.63;;;;;;;;;;5087261;28;20776;-75
2023/06/29 03:22:25;;;;;;;6.80;6.10;;;;;;;;;;5087504;28;20900;-71
2023/06/29 03:24:52;;;;;;;7.68;6.30;;;;;;;;;;5101267;28;20449;-73
2023/06/29 03:27:22;;;;;;;7.90;6.20;;;;;;;;;;5090524;28;22895;-74
2023/06/29 03:29:50;;;;;;;7.13;6.43;;;;;;;;;;5067340;28;20790;-73
2023/06/29 03:32:17;;;;;;;8.40;6.90;;;;;;;;;;5086231;28;20936;-72
2023/06/29 03:34:44;;;;;;;8.13;6.82;;;;;;;;;;5084661;28;20414;-72
2023/06/29 03:37:11;;;;;;;7.30;6.60;;;;;;;;;;5086998;28;20429;-73
2023/06/29 03:39:38;;;;;;;7.32;6.50;;;;;;;;;;5088738;28;20761;-73
2023/06/29 03:42:06;;;;;;;6.95;6.35;;;;;;;;;;5077961;28;20434;-74
2023/06/29 03:44:36;;;;;;;8.45;6.50;;;;;;;;;;5086882;28;20946;-73
2023/06/29 03:47:03;;;;;;;7.95;6.80;;;;;;;;;;5076556;28;20436;-71
2023/06/29 03:49:30;;;;;;;8.13;7.00;;;;;;;;;;5088707;28;20413;-72
2023/06/29 03:51:57;;;;;;;7.57;6.78;;;;;;;;;;5087868;28;20434;-71
2023/06/29 03:54:24;;;;;;;7.93;7.18;;;;;;;;;;5088957;28;20589;-73
2023/06/29 03:56:51;;;;;;;7.65;6.93;;;;;;;;;;5082021;28;20428;-73
2023/06/29 03:59:18;;;;;;;8.20;7.10;;;;;;;;;;5069779;28;20432;-73
2023/06/29 04:01:47;;;;;;;8.40;7.50;;;;;;;;;;5081068;28;20431;-72
2023/06/29 04:04:14;;;;;;;8.50;7.30;;;;;;;;;;5080079;28;20437;-73
2023/06/29 04:06:41;;;;;;;7.90;7.20;;;;;;;;;;5089695;28;20448;-73
2023/06/29 04:09:08;;;;;;;8.13;6.90;;;;;;;;;;5087451;28;20425;-72
2023/06/29 04:11:35;;;;;;;7.22;6.63;;;;;;;;;;5080258;28;20430;-73
2023/06/29 04:14:02;;;;;;;7.95;7.15;;;;;;;;;;5080039;28;20430;-71
2023/06/29 04:16:29;;;;;;;7.88;7.10;;;;;;;;;;5088624;28;20410;-73
2023/06/29 04:18:57;;;;;;;8.45;7.55;;;;;;;;;;5087932;28;20414;-73
2023/06/29 04:21:24;;;;;;;11.03;7.90;;;;;;;;;;5085785;28;20436;-73
2023/06/29 04:23:51;;;;;;;8.63;7.75;;;;;;;;;;5088176;28;20414;-73
2023/06/29 04:26:22;;;;;;;7.45;6.75;;;;;;;;;;5075991;28;20427;-73
2023/06/29 04:28:49;;;;;;;8.10;7.30;;;;;;;;;;5077611;28;20441;-73
2023/06/29 04:31:16;;;;;;;8.10;7.30;;;;;;;;;;5088689;28;20406;-74
2023/06/29 04:33:43;;;;;;;7.60;6.65;;;;;;;;;;5080615;28;20457;-72
2023/06/29 04:36:13;;;;;;;9.63;6.82;;;;;;;;;;5087032;28;20417;-73
2023/06/29 04:38:40;;;;;;;7.03;6.10;;;;;;;;;;5088225;28;20750;-73
2023/06/29 04:41:09;;;;;;;7.70;6.60;;;;;;;;;;5083448;28;20442;-73
2023/06/29 04:43:38;;;;;;;7.63;6.82;;;;;;;;;;5081494;28;20438;-73
2023/06/29 04:46:05;;;;;;;7.05;6.20;;;;;;;;;;5078993;28;20433;-72
2023/06/29 04:48:36;;;;;;;7.00;6.30;;;;;;;;;;5083016;28;20414;-72
2023/06/29 04:51:04;;;;;;;6.32;5.70;;;;;;;;;;5090189;28;20483;-73
2023/06/29 04:53:33;;;;;;;6.43;5.40;;;;;;;;;;5091524;28;20957;-70
2023/06/29 04:56:01;;;;;;;5.97;5.32;;;;;;;;;;5082246;28;20430;-70
2023/06/29 04:58:28;;;;;;;8.40;6.20;;;;;;;;;;5083611;28;20935;-70
2023/06/29 05:00:55;;;;;;;7.78;6.15;;;;;;;;;;5075604;28;20408;-71
2023/06/29 05:03:22;;;;;;;6.47;5.88;;;;;;;;;;5087936;28;20978;-72
2023/06/29 05:05:49;;;;;;;6.45;5.85;;;;;;;;;;5081377;28;20429;-70
2023/06/29 05:08:16;;;;;;;6.50;5.90;;;;;;;;;;5073141;28;20435;-70
2023/06/29 05:10:45;;;;;;;6.00;5.40;;;;;;;;;;5078559;28;20943;-69
2023/06/29 05:13:12;;;;;;;6.30;5.63;;;;;;;;;;5077776;28;20430;-70
2023/06/29 05:15:39;;;;;;;6.00;5.32;;;;;;;;;;5074182;28;20478;-70
2023/06/29 05:18:06;;;;;;;6.78;5.40;;;;;;;;;;5077730;28;20438;-70
2023/06/29 05:20:33;;;;;;;6.73;5.90;;;;;;;;;;5086006;28;20434;-69
2023/06/29 05:23:01;;;;;;;6.53;5.45;;;;;;;;;;5081240;28;20435;-70
2023/06/29 05:25:28;;;;;;;7.80;5.90;;;;;;;;;;5075964;28;20871;-71
2023/06/29 05:27:57;;;;;;;6.05;5.45;;;;;;;;;;5077686;28;20438;-69
2023/06/29 05:30:24;;;;;;;5.70;5.20;;;;;;;;;;5078886;28;21072;-70
2023/06/29 05:32:51;;;;;;;6.88;5.53;;;;;;;;;;5102560;28;20400;-70
2023/06/29 05:35:18;;;;;;;5.93;5.32;;;;;;;;;;5095176;28;20424;-71
2023/06/29 05:37:47;;;;;;;7.65;5.90;;;;;;;;;;5090719;28;20888;-70
2023/06/29 05:40:15;;;;;;;6.78;5.75;;;;;;;;;;5086790;28;20426;-69
2023/06/29 05:42:42;;;;;;;5.88;5.28;;;;;;;;;;5072751;28;20577;-71
2023/06/29 05:45:11;;;;;;;7.05;5.70;;;;;;;;;;5088035;28;20434;-69
2023/06/29 05:47:38;;;;;;;6.82;5.03;;;;;;;;;;5083166;28;20921;-69
2023/06/29 05:50:05;;;;;;;6.00;5.40;;;;;;;;;;5086691;28;20410;-70
2023/06/29 05:52:34;;;;;;;8.07;5.50;;;;;;;;;;5090104;28;20414;-70
2023/06/29 05:55:01;;;;;;;7.95;6.03;;;;;;;;;;5086292;28;21051;-70
2023/06/29 05:57:28;;;;;;;7.35;5.90;;;;;;;;;;5085447;28;20426;-70
2023/06/29 05:59:55;;;;;;;6.10;5.50;;;;;;;;;;5082569;28;20429;-70
2023/06/29 06:02:23;;;;;;;7.90;5.35;;;;;;;;;;5079328;28;20427;-69
2023/06/29 06:04:50;;;;;;;7.13;5.80;;;;;;;;;;5084640;28;20437;-70
2023/06/29 06:07:27;;;;;;;5.82;5.22;;;;;;;;;;5085454;28;20928;-69
2023/06/29 06:09:54;;;;;;;6.23;5.50;;;;;;;;;;5084617;28;20467;-70
2023/06/29 06:12:21;;;;;;;7.75;6.10;;;;;;;;;;5080769;28;20426;-71
2023/06/29 06:14:48;;;;;;;7.53;5.60;;;;;;;;;;5085383;28;20425;-69
2023/06/29 06:17:15;;;;;;;6.97;5.68;;;;;;;;;;5081145;28;20833;-68
2023/06/29 06:19:44;;;;;;;6.53;5.40;;;;;;;;;;5085660;28;20415;-71
2023/06/29 06:22:11;;;;;;;6.37;5.80;;;;;;;;;;5081415;28;21054;-70
2023/06/29 06:24:38;;;;;;;6.55;5.90;;;;;;;;;;5080801;28;20425;-70
2023/06/29 06:27:06;;;;;;;6.50;5.40;;;;;;;;;;5077553;28;20426;-69
2023/06/29 06:29:33;;;;;;;6.47;5.78;;;;;;;;;;5088777;28;20872;-70
2023/06/29 06:32:01;;;;;;;7.80;5.30;;;;;;;;;;5085249;28;20435;-69
2023/06/29 06:34:30;;;;;;;6.30;5.70;;;;;;;;;;5094270;22;20438;-65
2023/06/29 06:36:59;;;;;;;6.22;5.63;;;;;;;;;;5089333;28;20410;-64
2023/06/29 06:39:26;;;;;;;6.10;5.60;;;;;;;;;;5079908;28;20423;-65
2023/06/29 06:41:53;;;;;;;7.45;5.70;;;;;;;;;;5088575;28;20505;-67
2023/06/29 06:44:20;;;;;;;6.30;5.20;;;;;;;;;;5084677;28;20426;-65
2023/06/29 06:46:47;;;;;;;7.22;5.88;;;;;;;;;;5084671;28;20415;-63
2023/06/29 06:49:15;;;;;;;5.60;5.00;;;;;;;;;;5083984;28;20465;-66
2023/06/29 06:51:42;;;;;;;6.38;5.78;;;;;;;;;;5073048;28;20416;-67
2023/06/29 06:54:10;;;;;;;5.90;5.30;;;;;;;;;;5082433;28;20443;-67
2023/06/29 06:56:37;;;;;;;5.80;5.30;;;;;;;;;;5070648;28;21001;-66
2023/06/29 06:59:05;;;;;;;6.20;5.60;;;;;;;;;;5073429;28;20425;-66
2023/06/29 07:01:32;;;;;;;6.97;5.20;;;;;;;;;;5082402;28;20550;-66
2023/06/29 07:03:59;;;;;;;6.93;5.68;;;;;;;;;;5066242;28;20439;-66
2023/06/29 07:06:30;;;;;;;6.60;5.10;;;;;;;;;;5073112;28;20937;-66
2023/06/29 07:08:58;;;;;;;5.47;4.78;;;;;;;;;;5079009;28;20510;-66
2023/06/29 07:11:26;;;;;;;6.88;5.30;;;;;;;;;;5073059;28;20520;-66
2023/06/29 07:13:53;;;;;;;5.80;4.90;;;;;;;;;;5075223;28;20477;-66
2023/06/29 07:16:21;;;;;;;6.45;5.10;;;;;;;;;;5075002;28;20432;-66
2023/06/29 07:19:02;;;;;;;6.87;5.00;;;;;;;;;;5073058;28;21110;-66
2023/06/29 07:21:29;;;;;;;6.75;4.78;;;;;;;;;;5065397;28;20435;-66
2023/06/29 07:23:56;;;;;;;6.75;5.50;;;;;;;;;;5067528;28;20431;-66
2023/06/29 07:26:23;;;;;;;5.70;5.03;;;;;;;;;;5065801;28;20445;-66
2023/06/29 07:28:52;;;;;;;6.30;5.13;;;;;;;;;;5073639;28;20794;-66
2023/06/29 07:31:19;;;;;;;5.50;4.70;;;;;;;;;;5077767;28;20789;-66
2023/06/29 07:33:46;;;;;;;5.78;5.28;;;;;;;;;;5066221;28;20431;-65
2023/06/29 07:36:13;;;;;;;5.10;4.60;;;;;;;;;;5075199;28;20440;-66
2023/06/29 07:38:40;;;;;;;6.10;4.97;;;;;;;;;;5064564;28;20820;-65
2023/06/29 07:41:09;;;;;;;6.03;4.90;;;;;;;;;;5060860;28;20522;-66
2023/06/29 07:43:36;;;;;;;6.75;4.95;;;;;;;;;;5069973;28;20509;-66
2023/06/29 07:46:04;;;;;;;5.53;4.93;;;;;;;;;;5069170;28;20435;-64
2023/06/29 07:48:31;;;;;;;5.20;4.53;;;;;;;;;;5066876;28;20436;-65
2023/06/29 07:50:58;;;;;;;7.55;4.85;;;;;;;;;;5068143;28;20439;-65
2023/06/29 07:53:26;;;;;;;6.70;4.90;;;;;;;;;;5074937;28;20426;-65
2023/06/29 07:55:53;;;;;;;6.32;5.20;;;;;;;;;;5059214;28;20463;-64
2023/06/29 07:58:20;;;;;;;6.40;4.70;;;;;;;;;;5063396;28;20433;-64
2023/06/29 08:00:47;;;;;;;5.32;4.63;;;;;;;;;;5060755;28;20431;-64
2023/06/29 08:03:15;;;;;;;6.85;4.40;;;;;;;;;;5059063;28;20431;-64
2023/06/29 08:05:42;;;;;;;5.82;4.60;;;;;;;;;;5066985;28;20437;-64
2023/06/29 08:08:10;;;;;;;5.20;4.20;;;;;;;;;;5070571;28;20437;-64
2023/06/29 08:10:37;;;;;;;6.78;4.80;;;;;;;;;;5064452;28;20797;-63
2023/06/29 08:13:04;;;;;;;5.30;4.70;;;;;;;;;;5070909;28;20413;-65
2023/06/29 08:15:31;;;;;;;4.80;4.30;;;;;;;;;;5064323;28;20427;-65
2023/06/29 08:17:58;;;;;;;6.85;4.43;;;;;;;;;;5069149;28;20572;-64
2023/06/29 08:20:26;;;;;;;6.25;4.47;;;;;;;;;;5064285;28;20442;-64
2023/06/29 08:22:54;;;;;;;6.10;4.00;;;;;;;;;;5066846;28;20423;-64
2023/06/29 08:25:22;;;;;;;5.72;4.50;;;;;;;;;;5059115;28;20431;-64
2023/06/29 08:27:49;;;;;;;5.63;4.83;;;;;;;;;;5063045;28;20431;-64
2023/06/29 08:30:17;;;;;;;6.22;4.35;;;;;;;;;;5060870;28;20461;-64
2023/06/29 08:32:47;;;;;;;6.45;4.10;;;;;;;;;;5058789;28;20446;-64
2023/06/29 08:35:14;;;;;;;6.30;4.60;;;;;;;;;;5069232;28;20479;-65
2023/06/29 08:37:43;;;;;;;5.38;4.82;;;;;;;;;;5072953;28;20431;-63
2023/06/29 08:40:12;;;;;;;5.17;4.27;;;;;;;;;;5060995;28;20460;-63
2023/06/29 08:42:39;;;;;;;4.90;4.25;;;;;;;;;;5065523;28;20422;-64
2023/06/29 08:45:06;;;;;;;6.40;4.00;;;;;;;;;;5072345;28;20427;-65
2023/06/29 08:47:34;;;;;;;5.70;3.90;;;;;;;;;;5066883;28;20428;-64
2023/06/29 08:50:02;;;;;;;5.38;4.38;;;;;;;;;;5064171;28;20439;-64
2023/06/29 08:52:33;;;;;;;5.88;4.10;;;;;;;;;;5066243;28;20427;-64
2023/06/29 08:55:02;;;;;;;4.60;4.20;;;;;;;;;;5063207;28;20437;-64
2023/06/29 08:57:29;;;;;;;5.43;3.58;;;;;;;;;;5076422;28;20416;-65
2023/06/29 08:59:57;;;;;;;5.33;4.00;;;;;;;;;;5069612;28;20435;-65
2023/06/29 09:02:24;;;;;;;4.10;3.40;;;;;;;;;;5067464;28;20431;-65
2023/06/29 09:04:51;;;;;;;4.65;3.90;;;;;;;;;;5067688;28;20913;-65
2023/06/29 09:07:18;;;;;;;5.10;3.55;;;;;;;;;;5071724;28;20415;-65
2023/06/29 09:09:45;;;;;;;6.82;3.65;;;;;;;;;;5061289;28;20443;-65
2023/06/29 09:12:14;;;;;;;6.90;3.80;;;;;;;;;;5069614;28;20432;-65
2023/06/29 09:14:44;;;;;;;6.05;4.00;;;;;;;;;;5064833;28;20427;-65
2023/06/29 09:17:14;;;;;;;4.28;3.40;;;;;;;;;;5064537;28;20441;-66
2023/06/29 09:19:43;;;;;;;5.25;3.50;;;;;;;;;;5074932;28;20902;-64
2023/06/29 09:22:10;;;;;;;4.27;3.40;;;;;;;;;;5071430;28;20419;-64
2023/06/29 09:24:39;;;;;;;4.40;3.10;;;;;;;;;;5065584;28;20428;-65
2023/06/29 09:27:06;;;;;;;6.47;4.00;;;;;;;;;;5077211;28;20415;-65
2023/06/29 09:29:38;;;;;;;5.80;3.75;;;;;;;;;;5068875;28;20450;-64
2023/06/29 09:32:06;;;;;;;4.05;3.30;;;;;;;;;;5075899;28;20541;-64
2023/06/29 09:34:33;;;;;;;4.00;3.60;;;;;;;;;;5077201;28;20435;-65
2023/06/29 09:37:00;;;;;;;3.92;3.63;;;;;;;;;;5063967;28;20449;-64
2023/06/29 09:39:27;;;;;;;5.13;4.03;;;;;;;;;;5066237;28;20806;-64
2023/06/29 09:41:56;;;;;;;4.05;3.33;;;;;;;;;;5072410;28;20420;-64
2023/06/29 09:44:24;;;;;;;5.80;4.00;;;;;;;;;;5086024;28;20478;-64
2023/06/29 09:46:53;;;;;;;4.22;3.67;;;;;;;;;;5079511;28;20438;-64
2023/06/29 09:49:21;;;;;;;5.20;3.80;;;;;;;;;;5081527;28;20446;-65
2023/06/29 09:51:49;;;;;;;4.00;3.60;;;;;;;;;;5079381;28;20441;-64
2023/06/29 09:54:17;;;;;;;5.68;4.10;;;;;;;;;;5073633;28;20431;-64
2023/06/29 09:56:44;;;;;;;5.07;3.72;;;;;;;;;;5077439;28;20538;-64
2023/06/29 09:59:12;;;;;;;4.80;3.30;;;;;;;;;;5071786;28;20466;-65
2023/06/29 10:01:40;;;;;;;5.32;3.55;;;;;;;;;;5070006;28;20430;-65
2023/06/29 10:04:08;;;;;;;5.45;3.67;;;;;;;;;;5064831;28;20990;-65
2023/06/29 10:06:38;;;;;;;5.07;3.55;;;;;;;;;;5080725;28;20418;-64
2023/06/29 10:09:05;;;;;;;4.50;4.10;;;;;;;;;;5064631;28;20430;-64
2023/06/29 10:11:33;;;;;;;4.20;3.80;;;;;;;;;;5065719;28;20440;-64
2023/06/29 10:14:01;;;;;;;4.10;3.30;;;;;;;;;;5062354;28;20431;-63
2023/06/29 10:16:29;;;;;;;4.60;3.20;;;;;;;;;;5071466;28;20496;-64
2023/06/29 10:19:01;;;;;;;5.30;3.50;;;;;;;;;;5066585;28;20520;-64
2023/06/29 10:21:29;;;;;;;6.30;3.60;;;;;;;;;;5065094;28;20427;-64
2023/06/29 10:23:57;;;;;;;5.95;4.25;;;;;;;;;;5070134;28;20478;-64
2023/06/29 10:26:24;;;;;;;4.88;3.90;;;;;;;;;;5078849;28;20434;-64
2023/06/29 10:28:51;;;;;;;4.55;3.60;;;;;;;;;;5069563;28;20430;-64
2023/06/29 10:31:19;;;;;;;3.75;3.42;;;;;;;;;;5071418;28;20428;-65
2023/06/29 10:33:47;;;;;;;3.53;3.00;;;;;;;;;;5068006;28;20551;-64
2023/06/29 10:36:14;;;;;;;4.30;3.60;;;;;;;;;;5081659;28;20486;-65
2023/06/29 10:38:43;;;;;;;4.90;3.58;;;;;;;;;;5086622;28;20432;-65
2023/06/29 10:41:25;;;;;;;4.38;3.85;;;;;;;;;;5066859;28;20431;-65
2023/06/29 10:43:55;;;;;;;5.05;3.92;;;;;;;;;;5068654;28;20459;-65
2023/06/29 10:46:37;;;;;;;4.97;3.80;;;;;;;;;;5068586;28;20461;-65
2023/06/29 10:49:04;;;;;;;5.00;3.80;;;;;;;;;;5076950;28;20669;-68
2023/06/29 10:51:31;;;;;;;4.70;4.00;;;;;;;;;;5064811;28;20439;-70
2023/06/29 10:53:59;;;;;;;4.72;4.00;;;;;;;;;;5065572;28;20439;-68
2023/06/29 10:56:30;;;;;;;4.65;4.20;;;;;;;;;;5065781;28;20428;-69
2023/06/29 10:58:57;;;;;;;4.00;3.60;;;;;;;;;;5067691;28;20427;-68
2023/06/29 11:01:24;;;;;;;4.95;4.10;;;;;;;;;;5062461;28;20548;-68
2023/06/29 11:03:52;;;;;;;6.80;5.18;;;;;;;;;;5069029;28;20434;-68
2023/06/29 11:06:19;;;;;;;5.80;5.20;;;;;;;;;;5059123;28;20509;-67
2023/06/29 11:08:49;;;;;;;6.50;5.38;;;;;;;;;;5056911;28;20831;-67
2023/06/29 11:11:17;;;;;;;8.37;5.70;;;;;;;;;;5065608;28;20427;-66
2023/06/29 11:13:45;;;;;;;6.00;5.20;;;;;;;;;;5063346;28;20941;-68
2023/06/29 11:16:13;;;;;;;6.13;5.53;;;;;;;;;;5066130;28;20521;-68
2023/06/29 11:18:48;;;;;;;6.97;5.45;;;;;;;;;;5071033;28;20459;-67
2023/06/29 11:21:15;;;;;;;7.60;6.07;;;;;;;;;;5070473;28;20434;-68
2023/06/29 11:23:50;;;;;;;7.63;6.07;;;;;;;;;;5064197;28;20432;-68
2023/06/29 11:26:20;;;;;;;6.70;6.03;;;;;;;;;;5070137;28;20423;-68
2023/06/29 11:28:49;;;;;;;7.72;7.03;;;;;;;;;;5059633;28;20424;-68
2023/06/29 11:31:16;;;;;;;7.85;7.00;;;;;;;;;;5065180;28;20867;-68
2023/06/29 11:33:50;;;;;;;7.40;6.63;;;;;;;;;;5066028;28;20431;-68
2023/06/29 11:36:27;;;;;;;8.50;6.53;;;;;;;;;;5070035;28;20438;-69
2023/06/29 11:39:04;;;;;;;6.72;5.75;;;;;;;;;;5058636;28;20459;-69
2023/06/29 11:41:32;;;;;;;7.57;6.13;;;;;;;;;;5065737;28;20506;-69
2023/06/29 11:44:01;;;;;;;5.60;4.93;;;;;;;;;;5072551;28;20830;-69
2023/06/29 11:46:28;;;;;;;6.68;5.40;;;;;;;;;;5067409;28;20474;-68
2023/06/29 11:48:58;;;;;;;6.00;4.90;;;;;;;;;;5071003;28;20419;-68
2023/06/29 11:51:26;;;;;;;7.55;5.70;;;;;;;;;;5073863;28;20435;-69
2023/06/29 11:53:54;;;;;;;5.77;5.17;;;;;;;;;;5065004;28;20557;-68
2023/06/29 11:56:25;;;;;;;6.72;5.47;;;;;;;;;;5068714;28;20932;-68
2023/06/29 11:58:53;;;;;;;6.55;5.55;;;;;;;;;;5053213;28;20423;-67
2023/06/29 12:01:20;;;;;;;5.43;4.87;;;;;;;;;;5066338;28;20432;-67
2023/06/29 12:03:48;;;;;;;7.17;5.60;;;;;;;;;;5065824;28;20454;-67
2023/06/29 12:06:15;;;;;;;7.43;6.00;;;;;;;;;;5061566;28;20522;-67
2023/06/29 12:08:42;;;;;;;7.20;5.70;;;;;;;;;;5065464;28;20437;-67
2023/06/29 12:11:15;;;;;;;5.72;5.13;;;;;;;;;;5067089;28;20503;-68
2023/06/29 12:13:45;;;;;;;6.82;5.55;;;;;;;;;;5074159;28;20424;-67
2023/06/29 12:16:13;;;;;;;6.40;5.80;;;;;;;;;;5072445;28;20798;-67
2023/06/29 12:18:42;;;;;;;7.60;5.70;;;;;;;;;;5067949;28;20810;-67
2023/06/29 12:21:09;;;;;;;6.85;5.75;;;;;;;;;;5069008;28;20437;-67
2023/06/29 12:23:36;;;;;;;6.20;5.60;;;;;;;;;;5077679;28;20441;-67
2023/06/29 12:26:04;;;;;;;5.93;5.32;;;;;;;;;;5062250;28;20423;-68
2023/06/29 12:28:33;;;;;;;6.45;5.30;;;;;;;;;;5065592;28;20467;-67
2023/06/29 12:31:01;;;;;;;6.35;5.38;;;;;;;;;;5068812;28;20651;-67
2023/06/29 12:33:29;;;;;;;6.00;5.40;;;;;;;;;;5066539;28;20462;-67
2023/06/29 12:35:58;;;;;;;6.18;5.25;;;;;;;;;;5102387;22;20438;-70
2023/06/29 12:38:25;;;;;;;5.70;5.10;;;;;;;;;;5089674;28;20433;-71
2023/06/29 12:40:53;;;;;;;5.20;4.70;;;;;;;;;;5088347;28;20425;-71
2023/06/29 12:43:20;;;;;;;7.83;5.27;;;;;;;;;;5087472;28;20803;-71
2023/06/29 12:45:47;;;;;;;6.10;4.70;;;;;;;;;;5108063;28;20620;-72
2023/06/29 12:48:14;;;;;;;6.10;5.30;;;;;;;;;;5099794;28;20488;-71
2023/06/29 12:50:42;;;;;;;8.70;5.00;;;;;;;;;;5085110;28;20433;-71
2023/06/29 12:53:09;;;;;;;5.95;5.35;;;;;;;;;;5087794;28;20421;-71
2023/06/29 12:55:36;;;;;;;7.03;5.53;;;;;;;;;;5081821;28;20434;-71
2023/06/29 12:58:04;;;;;;;6.13;5.53;;;;;;;;;;5094540;28;20418;-71
2023/06/29 13:00:31;;;;;;;7.60;6.20;;;;;;;;;;5090361;28;20422;-71
2023/06/29 13:02:58;;;;;;;5.50;5.00;;;;;;;;;;5092294;28;20426;-71
2023/06/29 13:05:25;;;;;;;7.28;5.30;;;;;;;;;;5098450;28;20431;-71
2023/06/29 13:07:54;;;;;;;6.30;5.22;;;;;;;;;;5082815;28;20429;-71
2023/06/29 13:10:21;;;;;;;7.07;5.38;;;;;;;;;;5084580;28;20431;-70
2023/06/29 13:12:48;;;;;;;6.87;5.70;;;;;;;;;;5092979;28;20432;-71
2023/06/29 13:15:15;;;;;;;6.80;5.57;;;;;;;;;;5094424;28;20425;-72
2023/06/29 13:17:42;;;;;;;7.22;5.82;;;;;;;;;;5092990;28;20441;-70
2023/06/29 13:20:10;;;;;;;7.55;6.05;;;;;;;;;;5087126;28;20433;-70
2023/06/29 13:22:37;;;;;;;6.70;6.00;;;;;;;;;;5094239;28;20452;-71
2023/06/29 13:25:06;;;;;;;7.50;6.80;;;;;;;;;;5103666;28;20438;-72
2023/06/29 13:27:33;;;;;;;8.65;6.90;;;;;;;;;;5084952;28;20429;-70
2023/06/29 13:30:00;;;;;;;10.07;7.40;;;;;;;;;;5090658;28;20567;-72
2023/06/29 13:32:27;;;;;;;9.80;8.80;;;;;;;;;;5094638;28;20412;-74
2023/06/29 13:34:54;;;;;;;9.80;8.80;;;;;;;;;;5101271;28;20434;-72
2023/06/29 13:37:22;;;;;;;8.85;7.55;;;;;;;;;;5090070;28;20418;-72
2023/06/29 13:39:49;;;;;;;9.10;8.20;;;;;;;;;;5085177;28;20469;-72
2023/06/29 13:42:18;;;;;;;9.05;8.15;;;;;;;;;;5090326;28;20421;-72
2023/06/29 13:44:45;;;;;;;10.60;9.50;;;;;;;;;;5097984;28;20425;-72
2023/06/29 13:47:18;;;;;;;9.38;8.48;;;;;;;;;;5095169;28;20420;-71
2023/06/29 13:49:45;;;;;;;9.40;8.45;;;;;;;;;;5099346;28;20456;-71
2023/06/29 13:52:12;;;;;;;9.98;8.98;;;;;;;;;;5091371;28;20422;-72
2023/06/29 13:54:39;;;;;;;10.95;9.85;;;;;;;;;;5085500;28;20435;-72
2023/06/29 13:57:07;;;;;;;11.43;10.13;;;;;;;;;;5092154;28;20429;-72
2023/06/29 13:59:35;;;;;;;12.02;10.82;;;;;;;;;;5096620;28;20416;-72
2023/06/29 14:02:02;;;;;;;12.75;11.18;;;;;;;;;;5094945;28;20439;-71
2023/06/29 14:04:29;;;;;;;12.70;11.50;;;;;;;;;;5087575;28;20432;-77
2023/06/29 14:06:58;;;;;;;13.10;11.10;;;;;;;;;;5086156;28;20416;-70
2023/06/29 14:09:25;;;;;;;12.60;11.40;;;;;;;;;;5086320;28;20490;-72
2023/06/29 14:11:52;;;;;;;14.47;12.97;;;;;;;;;;5092812;28;20440;-70
2023/06/29 14:14:20;;;;;;;15.10;13.50;;;;;;;;;;5104718;28;20435;-71
2023/06/29 14:16:48;;;;;;;14.77;13.30;;;;;;;;;;5090282;28;21121;-72
2023/06/29 14:19:15;;;;;;;15.65;14.00;;;;;;;;;;5086838;28;20428;-71
2023/06/29 14:21:43;;;;;;;14.55;13.15;;;;;;;;;;5087294;28;20463;-71
2023/06/29 14:24:10;;;;;;;15.93;14.30;;;;;;;;;;5086533;28;20496;-71
2023/06/29 14:26:37;;;;;;;15.20;13.70;;;;;;;;;;5088702;28;20433;-72
2023/06/29 14:29:04;;;;;;;15.75;13.88;;;;;;;;;;5097603;28;20421;-73
2023/06/29 14:31:31;;;;;;;16.08;14.48;;;;;;;;;;5096264;28;20433;-71
2023/06/29 14:34:00;;;;;;;15.50;14.10;;;;;;;;;;5099725;28;20426;-72
2023/06/29 14:36:27;;;;;;;17.45;14.27;;;;;;;;;;5114266;28;20426;-72
2023/06/29 14:38:54;;;;;;;16.13;14.43;;;;;;;;;;5106584;28;20798;-71
2023/06/29 14:41:21;;;;;;;16.50;14.90;;;;;;;;;;5092754;28;20440;-71
2023/06/29 14:43:50;;;;;;;15.43;13.93;;;;;;;;;;5091577;28;20421;-73
2023/06/29 14:46:17;;;;;;;15.48;13.98;;;;;;;;;;5092275;28;20437;-71